Time;durP1;ratioP1;P1;durP2;ratioP2;P2;SDS_P1;SDS_P2;PMS_P1;PMS_P2;Temp;Humidity;BMP_temperature;BMP_pressure;BME280_temperature;BME280_humidity;BME280_pressure;Samples;Min_cycle;Max_cycle;Signal;HPM_P1;HPM_P2
2022/09/12 00:02:14;;;;;;;;;;;17.30;87.40;;;;;;5065509;28;19918;-66
2022/09/12 00:04:40;;;;;;;;;;;17.30;87.30;;;;;;5062671;28;20528;-66
2022/09/12 00:07:06;;;;;;;;;;;17.20;87.40;;;;;;5064219;28;19921;-66
2022/09/12 00:09:31;;;;;;;;;;;17.20;87.20;;;;;;5060674;28;20003;-66
2022/09/12 00:11:57;;;;;;;;;;;17.20;87.20;;;;;;5064894;28;19916;-66
2022/09/12 00:14:22;;;;;;;;;;;17.20;87.30;;;;;;5064060;28;19967;-66
2022/09/12 00:16:48;;;;;;;;;;;17.20;87.30;;;;;;5063203;28;19916;-66
2022/09/12 00:19:13;;;;;;;;;;;17.20;87.40;;;;;;5066328;28;19912;-66
2022/09/12 00:21:39;;;;;;;;;;;17.10;87.20;;;;;;5062958;28;19923;-66
2022/09/12 00:24:05;;;;;;;;;;;17.10;87.30;;;;;;5066552;28;20008;-66
2022/09/12 00:26:31;;;;;;;;;;;17.10;87.40;;;;;;5062826;28;19924;-66
2022/09/12 00:28:56;;;;;;;;;;;17.10;87.30;;;;;;5046530;28;19923;-66
2022/09/12 00:31:23;;;;;;;;;;;17.10;87.30;;;;;;5062352;28;19965;-66
2022/09/12 00:33:49;;;;;;;;;;;17.00;87.10;;;;;;5064589;28;20567;-66
2022/09/12 00:36:17;;;;;;;;;;;17.00;87.30;;;;;;5062676;28;19916;-66
2022/09/12 00:38:42;;;;;;;;;;;17.00;87.20;;;;;;5065224;28;19973;-66
2022/09/12 00:41:16;;;;;;;;;;;17.00;87.40;;;;;;5062334;28;19916;-66
2022/09/12 00:43:43;;;;;;;;;;;17.00;87.90;;;;;;5063853;28;19920;-66
2022/09/12 00:46:30;;;;;;;;;;;17.00;87.30;;;;;;5060462;28;19921;-67
2022/09/12 00:49:02;;;;;;;;;;;17.00;87.30;;;;;;5063712;28;19919;-66
2022/09/12 00:51:30;;;;;;;;;;;16.90;87.30;;;;;;5061713;28;19924;-66
2022/09/12 00:53:56;;;;;;;;;;;16.90;87.50;;;;;;5065123;28;19912;-66
2022/09/12 00:56:22;;;;;;;;;;;16.90;87.40;;;;;;5061417;28;19923;-66
2022/09/12 00:58:56;;;;;;;;;;;16.90;87.30;;;;;;5064356;28;19917;-66
2022/09/12 01:01:21;;;;;;;;;;;16.90;87.20;;;;;;5061419;28;20019;-66
2022/09/12 01:03:47;;;;;;;;;;;16.90;87.30;;;;;;5063363;28;19946;-66
2022/09/12 01:06:15;;;;;;;;;;;16.80;87.20;;;;;;5064223;28;19912;-66
2022/09/12 01:08:41;;;;;;;;;;;16.80;87.10;;;;;;5060427;28;20000;-66
2022/09/12 01:11:08;;;;;;;;;;;16.80;87.30;;;;;;5062880;28;20265;-67
2022/09/12 01:13:34;;;;;;;;;;;16.80;87.30;;;;;;5062897;28;19916;-66
2022/09/12 01:16:02;;;;;;;;;;;16.80;87.20;;;;;;5063775;28;19912;-66
2022/09/12 01:18:31;;;;;;;;;;;16.70;87.20;;;;;;5062376;28;19959;-66
2022/09/12 01:21:02;;;;;;;;;;;16.80;87.50;;;;;;5063757;28;19915;-66
2022/09/12 01:23:29;;;;;;;;;;;16.80;87.60;;;;;;5062311;28;20040;-66
2022/09/12 01:25:58;;;;;;;;;;;16.70;87.30;;;;;;5063459;28;20373;-66
2022/09/12 01:28:50;;;;;;;;;;;16.70;87.30;;;;;;5062049;28;19923;-66
2022/09/12 01:31:21;;;;;;;;;;;16.70;87.20;;;;;;5064486;28;19961;-66
2022/09/12 01:33:53;;;;;;;;;;;16.70;87.30;;;;;;5061751;28;20152;-66
2022/09/12 01:36:24;;;;;;;;;;;16.70;87.30;;;;;;5064376;28;19924;-66
2022/09/12 01:39:12;;;;;;;;;;;16.60;87.20;;;;;;5061873;28;19913;-66
2022/09/12 01:41:37;;;;;;;;;;;16.60;87.20;;;;;;5063545;28;19915;-66
2022/09/12 01:44:22;;;;;;;;;;;16.60;87.20;;;;;;5062047;28;19924;-67
2022/09/12 01:46:53;;;;;;;;;;;16.60;87.30;;;;;;5064350;28;19912;-66
2022/09/12 01:49:21;;;;;;;;;;;16.60;87.30;;;;;;5058542;28;19921;-66
2022/09/12 01:51:59;;;;;;;;;;;16.60;87.30;;;;;;5058667;28;20003;-66
2022/09/12 01:54:37;;;;;;;;;;;16.60;87.20;;;;;;5062159;28;19951;-66
2022/09/12 01:57:07;;;;;;;;;;;16.60;87.30;;;;;;5063304;28;19909;-66
2022/09/12 01:59:34;;;;;;;;;;;16.50;87.20;;;;;;5043074;28;19924;-66
2022/09/12 02:02:05;;;;;;;;;;;16.50;87.20;;;;;;5058071;28;19912;-67
2022/09/12 02:04:33;;;;;;;;;;;16.50;87.30;;;;;;5060286;28;20400;-66
2022/09/12 02:07:07;;;;;;;;;;;16.50;87.20;;;;;;5068239;28;19924;-66
2022/09/12 02:09:42;;;;;;;;;;;16.50;87.20;;;;;;5065145;28;19923;-66
2022/09/12 02:12:09;;;;;;;;;;;16.50;87.30;;;;;;5067931;28;19985;-66
2022/09/12 02:14:44;;;;;;;;;;;16.50;87.20;;;;;;5063572;28;19952;-66
2022/09/12 02:17:11;;;;;;;;;;;16.50;87.30;;;;;;5066524;28;19970;-66
2022/09/12 02:19:43;;;;;;;;;;;16.40;87.20;;;;;;5065699;28;19957;-66
2022/09/12 02:22:10;;;;;;;;;;;16.40;87.30;;;;;;5067320;28;20365;-66
2022/09/12 02:24:39;;;;;;;;;;;16.40;87.20;;;;;;5048005;28;20015;-66
2022/09/12 02:27:08;;;;;;;;;;;16.40;87.20;;;;;;5067435;28;19920;-66
2022/09/12 02:29:34;;;;;;;;;;;16.40;87.30;;;;;;5065284;28;19993;-66
2022/09/12 02:32:03;;;;;;;;;;;16.40;87.30;;;;;;5045915;28;19917;-66
2022/09/12 02:34:40;;;;;;;;;;;16.30;87.20;;;;;;5067468;28;19999;-66
2022/09/12 02:37:22;;;;;;;;;;;16.30;87.30;;;;;;5065074;28;19912;-67
2022/09/12 02:39:47;;;;;;;;;;;16.30;87.10;;;;;;5064804;28;19923;-66
2022/09/12 02:42:13;;;;;;;;;;;16.30;87.20;;;;;;5061031;28;19938;-66
2022/09/12 02:44:39;;;;;;;;;;;16.30;87.30;;;;;;5067721;28;19928;-66
2022/09/12 02:47:07;;;;;;;;;;;16.30;87.20;;;;;;5063693;28;19944;-66
2022/09/12 02:49:33;;;;;;;;;;;16.30;87.20;;;;;;5066121;28;19965;-66
2022/09/12 02:51:59;;;;;;;;;;;16.30;87.30;;;;;;5064094;28;20667;-66
2022/09/12 02:54:25;;;;;;;;;;;16.30;87.20;;;;;;5067777;28;19916;-66
2022/09/12 02:56:50;;;;;;;;;;;16.30;87.30;;;;;;5064361;28;20370;-66
2022/09/12 02:59:17;;;;;;;;;;;16.30;87.20;;;;;;5064307;28;19916;-66
2022/09/12 03:01:46;;;;;;;;;;;16.20;87.20;;;;;;5063601;28;20369;-66
2022/09/12 03:04:11;;;;;;;;;;;16.20;87.20;;;;;;5066332;28;20395;-66
2022/09/12 03:06:48;;;;;;;;;;;16.20;87.20;;;;;;5064737;28;20016;-66
2022/09/12 03:09:29;;;;;;;;;;;16.20;87.20;;;;;;5066503;28;20008;-66
2022/09/12 03:12:07;;;;;;;;;;;16.20;87.10;;;;;;5060955;28;19917;-66
2022/09/12 03:14:46;;;;;;;;;;;16.20;87.10;;;;;;5064497;28;19919;-66
2022/09/12 03:17:29;;;;;;;;;;;16.20;87.10;;;;;;5064124;28;19943;-66
2022/09/12 03:20:12;;;;;;;;;;;16.10;87.10;;;;;;5064472;28;19989;-66
2022/09/12 03:22:40;;;;;;;;;;;16.10;87.10;;;;;;5060944;28;19923;-66
2022/09/12 03:25:17;;;;;;;;;;;16.10;87.10;;;;;;5067691;28;19962;-66
2022/09/12 03:27:58;;;;;;;;;;;16.10;87.00;;;;;;5062289;28;20327;-66
2022/09/12 03:30:23;;;;;;;;;;;16.10;87.10;;;;;;5066379;28;19919;-66
2022/09/12 03:32:51;;;;;;;;;;;16.10;87.10;;;;;;5064015;28;19913;-66
2022/09/12 03:35:18;;;;;;;;;;;16.00;87.10;;;;;;5066902;28;19966;-66
2022/09/12 03:37:43;;;;;;;;;;;16.10;87.10;;;;;;5059003;28;20001;-66
2022/09/12 03:40:10;;;;;;;;;;;16.00;87.00;;;;;;5066289;28;19923;-66
2022/09/12 03:42:36;;;;;;;;;;;16.00;87.10;;;;;;5063700;28;20541;-66
2022/09/12 03:45:02;;;;;;;;;;;16.00;87.10;;;;;;5067030;28;19916;-66
2022/09/12 03:47:27;;;;;;;;;;;16.00;87.10;;;;;;5064271;28;19970;-66
2022/09/12 03:49:53;;;;;;;;;;;16.00;87.00;;;;;;5061395;28;19912;-66
2022/09/12 03:52:18;;;;;;;;;;;16.00;87.10;;;;;;5047248;28;19920;-66
2022/09/12 03:54:44;;;;;;;;;;;16.00;87.10;;;;;;5064087;28;19919;-66
2022/09/12 03:57:09;;;;;;;;;;;16.00;87.10;;;;;;5065650;28;19958;-66
2022/09/12 03:59:35;;;;;;;;;;;15.90;87.00;;;;;;5049413;28;19916;-66
2022/09/12 04:02:00;;;;;;;;;;;15.90;86.90;;;;;;5064447;28;19916;-66
2022/09/12 04:04:26;;;;;;;;;;;15.90;87.00;;;;;;5063143;28;20018;-66
2022/09/12 04:06:51;;;;;;;;;;;15.90;87.00;;;;;;5065288;28;20293;-66
2022/09/12 04:09:16;;;;;;;;;;;15.90;87.00;;;;;;5063908;28;19916;-66
2022/09/12 04:11:42;;;;;;;;;;;15.90;87.10;;;;;;5065796;28;20361;-66
2022/09/12 04:14:07;;;;;;;;;;;15.90;87.10;;;;;;5061200;28;19928;-66
2022/09/12 04:16:33;;;;;;;;;;;15.90;87.00;;;;;;5065238;28;19915;-66
2022/09/12 04:18:58;;;;;;;;;;;15.90;87.10;;;;;;5063511;28;19913;-66
2022/09/12 04:21:24;;;;;;;;;;;15.80;86.90;;;;;;5064201;28;20007;-66
2022/09/12 04:23:49;;;;;;;;;;;15.90;87.10;;;;;;5066564;28;20308;-66
2022/09/12 04:26:16;;;;;;;;;;;15.80;87.00;;;;;;5044939;28;19920;-66
2022/09/12 04:28:42;;;;;;;;;;;15.80;87.10;;;;;;5064088;28;19974;-66
2022/09/12 04:31:14;;;;;;;;;;;15.80;87.00;;;;;;5062606;28;19924;-66
2022/09/12 04:33:39;;;;;;;;;;;15.80;87.10;;;;;;5062321;28;19943;-66
2022/09/12 04:36:06;;;;;;;;;;;15.80;87.10;;;;;;5063597;28;19951;-66
2022/09/12 04:38:32;;;;;;;;;;;15.70;87.00;;;;;;5046439;28;19923;-66
2022/09/12 04:40:57;;;;;;;;;;;15.80;87.10;;;;;;5063092;28;20704;-66
2022/09/12 04:43:23;;;;;;;;;;;15.80;87.10;;;;;;5065118;28;19926;-66
2022/09/12 04:45:48;;;;;;;;;;;15.80;87.10;;;;;;5063487;28;20745;-66
2022/09/12 04:48:14;;;;;;;;;;;15.80;87.00;;;;;;5064649;28;19912;-66
2022/09/12 04:50:39;;;;;;;;;;;15.70;87.10;;;;;;5061420;28;19920;-66
2022/09/12 04:53:05;;;;;;;;;;;15.70;87.00;;;;;;5065329;28;19951;-66
2022/09/12 04:55:32;;;;;;;;;;;15.70;87.10;;;;;;5063357;28;20280;-66
2022/09/12 04:57:58;;;;;;;;;;;15.70;87.00;;;;;;5065229;28;19912;-66
2022/09/12 05:00:23;;;;;;;;;;;15.70;87.10;;;;;;5062794;28;19913;-66
2022/09/12 05:02:49;;;;;;;;;;;15.70;87.10;;;;;;5061215;28;20575;-66
2022/09/12 05:05:16;;;;;;;;;;;15.70;87.00;;;;;;5065369;28;19924;-66
2022/09/12 05:07:41;;;;;;;;;;;15.70;87.10;;;;;;5062263;28;19954;-66
2022/09/12 05:10:07;;;;;;;;;;;15.70;87.10;;;;;;5060498;28;19919;-66
2022/09/12 05:12:33;;;;;;;;;;;15.70;87.40;;;;;;5061796;28;20763;-66
2022/09/12 05:14:58;;;;;;;;;;;15.70;87.00;;;;;;5064827;28;19913;-66
2022/09/12 05:17:24;;;;;;;;;;;15.70;87.10;;;;;;5059786;28;19927;-66
2022/09/12 05:19:49;;;;;;;;;;;15.70;87.00;;;;;;5061856;28;20006;-66
2022/09/12 05:22:15;;;;;;;;;;;15.70;87.10;;;;;;5061813;28;20551;-66
2022/09/12 05:24:42;;;;;;;;;;;15.70;87.10;;;;;;5064944;28;20605;-66
2022/09/12 05:27:08;;;;;;;;;;;15.70;87.10;;;;;;5061391;28;19920;-66
2022/09/12 05:29:33;;;;;;;;;;;15.70;87.00;;;;;;5064716;28;19919;-66
2022/09/12 05:31:59;;;;;;;;;;;15.70;87.10;;;;;;5061880;28;19916;-66
2022/09/12 05:34:24;;;;;;;;;;;15.60;87.00;;;;;;5063289;28;19920;-66
2022/09/12 05:36:50;;;;;;;;;;;15.70;87.00;;;;;;5064737;28;20639;-66
2022/09/12 05:39:15;;;;;;;;;;;15.70;87.10;;;;;;5059520;28;19913;-66
2022/09/12 05:41:41;;;;;;;;;;;15.60;87.00;;;;;;5062920;28;19924;-66
2022/09/12 05:44:10;;;;;;;;;;;15.60;86.90;;;;;;5059515;28;20051;-66
2022/09/12 05:46:40;;;;;;;;;;;15.60;87.00;;;;;;5061355;28;19920;-66
2022/09/12 05:49:10;;;;;;;;;;;15.60;87.00;;;;;;5062422;28;20342;-66
2022/09/12 05:51:37;;;;;;;;;;;15.70;87.10;;;;;;5064106;28;19913;-66
2022/09/12 05:54:03;;;;;;;;;;;15.70;86.90;;;;;;5060770;28;19917;-66
2022/09/12 05:56:30;;;;;;;;;;;15.70;87.10;;;;;;5064855;28;19919;-66
2022/09/12 05:59:03;;;;;;;;;;;15.70;87.10;;;;;;5061440;28;19956;-66
2022/09/12 06:01:29;;;;;;;;;;;15.70;87.10;;;;;;5046431;28;19916;-67
2022/09/12 06:03:56;;;;;;;;;;;15.70;87.10;;;;;;5042424;28;20465;-66
2022/09/12 06:06:23;;;;;;;;;;;15.70;87.10;;;;;;5064769;28;19920;-66
2022/09/12 06:08:49;;;;;;;;;;;15.70;87.10;;;;;;5060490;28;19913;-66
2022/09/12 06:11:16;;;;;;;;;;;15.70;87.10;;;;;;5064492;28;19920;-66
2022/09/12 06:13:43;;;;;;;;;;;15.70;87.00;;;;;;5061509;28;19921;-66
2022/09/12 06:16:10;;;;;;;;;;;15.70;87.00;;;;;;5064040;28;20007;-66
2022/09/12 06:18:36;;;;;;;;;;;15.70;87.00;;;;;;5062344;28;19908;-66
2022/09/12 06:21:05;;;;;;;;;;;15.70;87.00;;;;;;5061636;28;19912;-66
2022/09/12 06:23:31;;;;;;;;;;;15.70;87.10;;;;;;5064065;28;19962;-66
2022/09/12 06:25:57;;;;;;;;;;;15.70;87.10;;;;;;5061397;28;19947;-66
2022/09/12 06:28:22;;;;;;;;;;;15.80;87.00;;;;;;5060265;28;19917;-66
2022/09/12 06:30:49;;;;;;;;;;;15.80;87.00;;;;;;5061405;28;19916;-66
2022/09/12 06:33:14;;;;;;;;;;;15.80;87.10;;;;;;5062802;28;19923;-66
2022/09/12 06:35:40;;;;;;;;;;;15.80;86.90;;;;;;5061858;28;19920;-66
2022/09/12 06:38:05;;;;;;;;;;;15.80;86.90;;;;;;5058261;28;19995;-66
2022/09/12 06:40:31;;;;;;;;;;;15.90;87.00;;;;;;5061605;28;19966;-66
2022/09/12 06:42:57;;;;;;;;;;;15.90;87.00;;;;;;5061507;28;19924;-66
2022/09/12 06:45:23;;;;;;;;;;;15.90;86.90;;;;;;5061301;28;19916;-66
2022/09/12 06:47:48;;;;;;;;;;;16.00;87.00;;;;;;5063835;28;19967;-66
2022/09/12 06:50:14;;;;;;;;;;;16.00;87.10;;;;;;5061863;28;19955;-66
2022/09/12 06:52:39;;;;;;;;;;;16.00;86.80;;;;;;5065641;28;20392;-66
2022/09/12 06:55:05;;;;;;;;;;;16.10;86.80;;;;;;5065208;28;19912;-66
2022/09/12 06:57:31;;;;;;;;;;;16.10;86.80;;;;;;5066444;28;19920;-66
2022/09/12 06:59:57;;;;;;;;;;;16.10;86.90;;;;;;5066209;28;19912;-66
2022/09/12 07:02:24;;;;;;;;;;;16.10;86.70;;;;;;5060458;28;19916;-66
2022/09/12 07:04:50;;;;;;;;;;;16.20;86.80;;;;;;5067749;28;19947;-66
2022/09/12 07:07:16;;;;;;;;;;;16.20;86.70;;;;;;5063360;28;19921;-66
2022/09/12 07:09:42;;;;;;;;;;;16.20;86.70;;;;;;5067257;28;19920;-66
2022/09/12 07:12:07;;;;;;;;;;;16.30;86.60;;;;;;5045643;28;19947;-66
2022/09/12 07:14:32;;;;;;;;;;;16.30;86.60;;;;;;5065612;28;19909;-66
2022/09/12 07:16:58;;;;;;;;;;;16.30;86.50;;;;;;5063635;28;20634;-66
2022/09/12 07:19:23;;;;;;;;;;;16.40;86.30;;;;;;5065128;28;19960;-66
2022/09/12 07:21:49;;;;;;;;;;;16.40;86.20;;;;;;5064439;28;19967;-66
2022/09/12 07:24:14;;;;;;;;;;;16.50;86.20;;;;;;5065696;28;19952;-66
2022/09/12 07:26:40;;;;;;;;;;;16.50;86.00;;;;;;5064406;28;19931;-66
2022/09/12 07:29:08;;;;;;;;;;;16.50;86.00;;;;;;5063877;28;19913;-66
2022/09/12 07:31:33;;;;;;;;;;;16.60;86.00;;;;;;5064433;28;19913;-66
2022/09/12 07:33:58;;;;;;;;;;;16.60;86.00;;;;;;5063322;28;19919;-66
2022/09/12 07:36:24;;;;;;;;;;;16.60;85.90;;;;;;5067105;28;20499;-66
2022/09/12 07:38:54;;;;;;;;;;;16.70;85.90;;;;;;5061789;28;19999;-66
2022/09/12 07:41:22;;;;;;;;;;;16.70;85.90;;;;;;5066649;28;20269;-66
2022/09/12 07:43:50;;;;;;;;;;;16.70;85.80;;;;;;5062775;28;20021;-66
2022/09/12 07:46:15;;;;;;;;;;;16.80;85.90;;;;;;5067370;28;19944;-66
2022/09/12 07:48:41;;;;;;;;;;;16.80;85.80;;;;;;5063940;28;19983;-66
2022/09/12 07:51:08;;;;;;;;;;;16.80;85.70;;;;;;5066830;28;19958;-66
2022/09/12 07:53:35;;;;;;;;;;;16.90;85.70;;;;;;5063827;28;19917;-66
2022/09/12 07:56:01;;;;;;;;;;;16.90;85.60;;;;;;5065046;28;20261;-66
2022/09/12 07:58:27;;;;;;;;;;;17.00;85.70;;;;;;5062665;28;20719;-66
2022/09/12 08:00:53;;;;;;;;;;;17.00;85.60;;;;;;5066770;28;19945;-66
2022/09/12 08:03:19;;;;;;;;;;;17.00;85.60;;;;;;5061186;28;19928;-66
2022/09/12 08:05:44;;;;;;;;;;;17.00;85.50;;;;;;5066970;28;19916;-66
2022/09/12 08:08:10;;;;;;;;;;;17.10;85.50;;;;;;5060041;28;20438;-66
2022/09/12 08:10:35;;;;;;;;;;;17.10;85.40;;;;;;5064168;28;19915;-66
2022/09/12 08:13:02;;;;;;;;;;;17.20;85.40;;;;;;5063715;28;19952;-66
2022/09/12 08:15:28;;;;;;;;;;;17.20;85.30;;;;;;5063991;28;20647;-66
2022/09/12 08:17:53;;;;;;;;;;;17.30;85.30;;;;;;5047309;28;19952;-66
2022/09/12 08:20:19;;;;;;;;;;;17.30;85.20;;;;;;5063780;28;19917;-66
2022/09/12 08:22:44;;;;;;;;;;;17.30;85.10;;;;;;5064099;28;19947;-66
2022/09/12 08:25:10;;;;;;;;;;;17.40;85.10;;;;;;5063798;28;19912;-66
2022/09/12 08:27:36;;;;;;;;;;;17.40;85.00;;;;;;5065521;28;20416;-66
2022/09/12 08:30:02;;;;;;;;;;;17.50;85.00;;;;;;5062192;28;19948;-66
2022/09/12 08:32:28;;;;;;;;;;;17.50;84.90;;;;;;5064289;28;20000;-66
2022/09/12 08:34:53;;;;;;;;;;;17.50;84.80;;;;;;5063395;28;20011;-66
2022/09/12 08:37:19;;;;;;;;;;;17.60;84.80;;;;;;5065587;28;20606;-66
2022/09/12 08:39:44;;;;;;;;;;;17.60;84.80;;;;;;5059691;28;20369;-66
2022/09/12 08:42:15;;;;;;;;;;;17.60;84.70;;;;;;5065719;28;19938;-66
2022/09/12 08:44:43;;;;;;;;;;;17.60;84.60;;;;;;5063003;28;20002;-66
2022/09/12 08:47:26;;;;;;;;;;;17.70;84.70;;;;;;5064116;28;19923;-66
2022/09/12 08:49:55;;;;;;;;;;;17.70;84.60;;;;;;5061961;28;19921;-66
2022/09/12 08:52:24;;;;;;;;;;;17.80;84.60;;;;;;5064570;28;19916;-66
2022/09/12 08:54:50;;;;;;;;;;;17.80;84.60;;;;;;5061095;28;19921;-66
2022/09/12 08:57:16;;;;;;;;;;;17.80;84.50;;;;;;5065590;28;19943;-66
2022/09/12 08:59:43;;;;;;;;;;;17.80;84.60;;;;;;5062739;28;20611;-66
2022/09/12 09:02:15;;;;;;;;;;;17.90;84.60;;;;;;5064242;28;19969;-66
2022/09/12 09:04:46;;;;;;;;;;;17.90;84.40;;;;;;5063018;28;19916;-67
2022/09/12 09:07:21;;;;;;;;;;;18.00;84.40;;;;;;5062553;28;19932;-66
2022/09/12 09:09:47;;;;;;;;;;;18.00;84.40;;;;;;5064673;28;19912;-66
2022/09/12 09:12:15;;;;;;;;;;;18.10;84.50;;;;;;5062663;28;20365;-66
2022/09/12 09:14:53;;;;;;;;;;;18.10;84.20;;;;;;5063195;28;20570;-66
2022/09/12 09:17:32;;;;;;;;;;;18.10;84.20;;;;;;5062831;28;19920;-66
2022/09/12 09:20:01;;;;;;;;;;;18.10;84.30;;;;;;5064565;28;20401;-66
2022/09/12 09:22:41;;;;;;;;;;;18.20;84.20;;;;;;5062116;28;19954;-66
2022/09/12 09:25:12;;;;;;;;;;;18.20;84.10;;;;;;5065482;28;19916;-66
2022/09/12 09:27:45;;;;;;;;;;;18.20;84.10;;;;;;5062654;28;19920;-66
2022/09/12 09:30:15;;;;;;;;;;;18.30;84.20;;;;;;5065029;28;20582;-66
2022/09/12 09:32:41;;;;;;;;;;;18.30;84.10;;;;;;5060704;28;19963;-66
2022/09/12 09:35:30;;;;;;;;;;;18.40;83.90;;;;;;5065001;28;19915;-66
2022/09/12 09:38:14;;;;;;;;;;;18.40;83.80;;;;;;5050573;28;19916;-66
2022/09/12 09:40:40;;;;;;;;;;;18.50;83.70;;;;;;5063235;28;19912;-66
2022/09/12 09:43:13;;;;;;;;;;;18.50;83.60;;;;;;5059207;28;19943;-66
2022/09/12 09:45:39;;;;;;;;;;;18.50;84.30;;;;;;5065017;28;19923;-66
2022/09/12 09:48:17;;;;;;;;;;;18.50;83.90;;;;;;5061369;28;19923;-67
2022/09/12 09:50:43;;;;;;;;;;;18.50;83.80;;;;;;5064308;28;19914;-66
2022/09/12 09:53:13;;;;;;;;;;;18.50;83.70;;;;;;5061633;28;20592;-66
2022/09/12 09:55:41;;;;;;;;;;;18.60;83.80;;;;;;5065172;28;19920;-66
2022/09/12 09:58:06;;;;;;;;;;;18.60;83.80;;;;;;5061149;28;20007;-66
2022/09/12 10:00:33;;;;;;;;;;;18.70;83.40;;;;;;5064147;28;20002;-66
2022/09/12 10:03:07;;;;;;;;;;;18.70;83.20;;;;;;5057959;28;19927;-66
2022/09/12 10:05:36;;;;;;;;;;;18.80;83.20;;;;;;5064719;28;19909;-66
2022/09/12 10:08:02;;;;;;;;;;;18.80;83.10;;;;;;5061349;28;19930;-66
2022/09/12 10:10:28;;;;;;;;;;;18.80;82.90;;;;;;5063510;28;19912;-66
2022/09/12 10:13:07;;;;;;;;;;;18.80;83.10;;;;;;5062080;28;20010;-67
2022/09/12 10:15:33;;;;;;;;;;;18.90;83.20;;;;;;5063198;28;19959;-66
2022/09/12 10:17:59;;;;;;;;;;;18.90;83.00;;;;;;5061918;28;20007;-66
2022/09/12 10:20:29;;;;;;;;;;;18.90;83.20;;;;;;5064222;28;20520;-66
2022/09/12 10:22:56;;;;;;;;;;;18.90;82.90;;;;;;5062681;28;19912;-66
2022/09/12 10:25:24;;;;;;;;;;;19.00;83.00;;;;;;5064856;28;19912;-66
2022/09/12 10:27:57;;;;;;;;;;;19.00;83.30;;;;;;5064999;28;20277;-67
2022/09/12 10:30:26;;;;;;;;;;;19.10;83.20;;;;;;5063020;28;19917;-67
2022/09/12 10:32:55;;;;;;;;;;;19.10;83.00;;;;;;5065906;28;19920;-67
2022/09/12 10:35:29;;;;;;;;;;;19.10;83.00;;;;;;5066034;28;20516;-67
2022/09/12 10:37:58;;;;;;;;;;;19.20;82.80;;;;;;5065352;28;19913;-67
2022/09/12 10:40:23;;;;;;;;;;;19.30;82.60;;;;;;5065196;28;19927;-67
2022/09/12 10:42:50;;;;;;;;;;;19.40;83.00;;;;;;5066708;28;19920;-67
2022/09/12 10:45:23;;;;;;;;;;;19.40;82.50;;;;;;5065157;28;20003;-67
2022/09/12 10:47:49;;;;;;;;;;;19.50;82.50;;;;;;5066248;28;19920;-67
2022/09/12 10:50:37;;;;;;;;;;;19.60;82.60;;;;;;5064260;28;19916;-67
2022/09/12 10:53:13;;;;;;;;;;;19.60;82.60;;;;;;5056029;28;20018;-67
2022/09/12 10:55:40;;;;;;;;;;;19.70;82.60;;;;;;5063661;28;19938;-67
2022/09/12 10:58:16;;;;;;;;;;;19.80;82.70;;;;;;5065263;28;19920;-66
2022/09/12 11:00:46;;;;;;;;;;;19.90;82.60;;;;;;5064791;28;19913;-67
2022/09/12 11:03:19;;;;;;;;;;;20.00;82.60;;;;;;5049178;28;19962;-66
2022/09/12 11:05:50;;;;;;;;;;;20.10;83.70;;;;;;5063599;28;20470;-66
2022/09/12 11:08:34;;;;;;;;;;;20.20;83.50;;;;;;5063719;28;19919;-67
2022/09/12 11:11:02;;;;;;;;;;;20.30;83.00;;;;;;5063252;28;19916;-66
2022/09/12 11:13:28;;;;;;;;;;;20.40;82.50;;;;;;5066882;28;19920;-66
2022/09/12 11:16:02;;;;;;;;;;;20.50;82.30;;;;;;5062100;28;19938;-67
2022/09/12 11:18:46;;;;;;;;;;;20.60;82.20;;;;;;5065834;28;20365;-67
2022/09/12 11:21:12;;;;;;;;;;;20.70;81.70;;;;;;5062502;28;19922;-67
2022/09/12 11:23:47;;;;;;;;;;;20.80;81.80;;;;;;5065256;28;19909;-66
2022/09/12 11:26:31;;;;;;;;;;;20.90;81.40;;;;;;5065223;28;19920;-66
2022/09/12 11:28:59;;;;;;;;;;;21.00;81.40;;;;;;5066580;28;19961;-67
2022/09/12 11:31:43;;;;;;;;;;;21.10;81.40;;;;;;5061430;28;19917;-66
2022/09/12 11:34:09;;;;;;;;;;;21.20;81.20;;;;;;5064671;28;19946;-66
2022/09/12 11:36:41;;;;;;;;;;;21.30;80.90;;;;;;5064997;28;20342;-66
2022/09/12 11:39:21;;;;;;;;;;;21.40;81.20;;;;;;5062870;28;19916;-66
2022/09/12 11:41:54;;;;;;;;;;;21.50;81.00;;;;;;5061942;28;19917;-66
2022/09/12 11:44:21;;;;;;;;;;;21.60;80.80;;;;;;5065470;28;19927;-66
2022/09/12 11:46:47;;;;;;;;;;;21.70;81.10;;;;;;5063557;28;19965;-66
2022/09/12 11:49:14;;;;;;;;;;;21.80;80.20;;;;;;5048177;28;19920;-67
2022/09/12 11:51:39;;;;;;;;;;;21.90;80.40;;;;;;5063925;28;19947;-66
2022/09/12 11:54:05;;;;;;;;;;;22.00;80.40;;;;;;5062743;28;20452;-66
2022/09/12 11:56:31;;;;;;;;;;;22.10;80.30;;;;;;5065529;28;19951;-66
2022/09/12 11:59:03;;;;;;;;;;;22.20;80.10;;;;;;5065138;28;20405;-66
2022/09/12 12:01:36;;;;;;;;;;;22.20;80.40;;;;;;5065126;28;19943;-67
2022/09/12 12:04:06;;;;;;;;;;;22.20;80.30;;;;;;5062523;28;19916;-66
2022/09/12 12:06:52;;;;;;;;;;;22.30;80.50;;;;;;5066610;28;19962;-66
2022/09/12 12:09:18;;;;;;;;;;;22.40;80.30;;;;;;5052298;28;19917;-67
2022/09/12 12:11:46;;;;;;;;;;;22.40;80.50;;;;;;5065874;28;20272;-66
2022/09/12 12:14:12;;;;;;;;;;;22.50;80.40;;;;;;5059532;28;19955;-66
2022/09/12 12:16:37;;;;;;;;;;;22.60;80.30;;;;;;5066642;28;20344;-67
2022/09/12 12:19:05;;;;;;;;;;;22.60;80.40;;;;;;5062167;28;19951;-66
2022/09/12 12:21:39;;;;;;;;;;;22.70;80.50;;;;;;5062745;28;19944;-66
2022/09/12 12:24:07;;;;;;;;;;;22.70;80.10;;;;;;5063741;28;20507;-67
2022/09/12 12:26:38;;;;;;;;;;;22.80;80.00;;;;;;5065882;28;20012;-66
2022/09/12 12:29:24;;;;;;;;;;;22.80;80.40;;;;;;5059305;28;19934;-66
2022/09/12 12:32:00;;;;;;;;;;;22.90;80.10;;;;;;5050343;28;20001;-66
2022/09/12 12:34:30;;;;;;;;;;;22.90;80.40;;;;;;5059755;28;19956;-66
2022/09/12 12:36:56;;;;;;;;;;;22.90;80.30;;;;;;5065551;28;19912;-67
2022/09/12 12:39:31;;;;;;;;;;;23.00;80.20;;;;;;5061965;28;19962;-66
2022/09/12 12:41:57;;;;;;;;;;;23.00;80.30;;;;;;5065227;28;19961;-67
2022/09/12 12:44:42;;;;;;;;;;;23.00;80.00;;;;;;5061685;28;19917;-67
2022/09/12 12:47:16;;;;;;;;;;;23.10;80.20;;;;;;5061877;28;19962;-66
2022/09/12 12:49:48;;;;;;;;;;;23.10;81.40;;;;;;5062116;28;19917;-66
2022/09/12 12:52:15;;;;;;;;;;;23.20;80.50;;;;;;5063483;28;19937;-67
2022/09/12 12:54:44;;;;;;;;;;;23.30;80.30;;;;;;5061570;28;19928;-67
2022/09/12 12:57:12;;;;;;;;;;;23.30;80.00;;;;;;5062816;28;19923;-66
2022/09/12 12:59:45;;;;;;;;;;;23.40;79.50;;;;;;5061181;28;19958;-67
2022/09/12 13:02:18;;;;;;;;;;;23.40;79.40;;;;;;5064737;28;19923;-67
2022/09/12 13:04:44;;;;;;;;;;;23.50;79.40;;;;;;5059992;28;20459;-67
2022/09/12 13:07:19;;;;;;;;;;;23.50;79.50;;;;;;5060963;28;19960;-66
2022/09/12 13:09:46;;;;;;;;;;;23.60;79.50;;;;;;5060977;28;20422;-67
2022/09/12 13:12:18;;;;;;;;;;;23.60;79.40;;;;;;5064762;28;19927;-67
2022/09/12 13:14:48;;;;;;;;;;;23.70;79.60;;;;;;5057124;28;19916;-67
2022/09/12 13:17:34;;;;;;;;;;;23.70;79.80;;;;;;5061216;28;19959;-67
2022/09/12 13:20:12;;;;;;;;;;;23.70;79.80;;;;;;5059406;28;19974;-67
2022/09/12 13:22:42;;;;;;;;;;;23.70;80.60;;;;;;5046842;28;19916;-67
2022/09/12 13:25:25;;;;;;;;;;;23.80;80.40;;;;;;5059576;28;19948;-67
2022/09/12 13:27:58;;;;;;;;;;;23.80;79.70;;;;;;5065049;28;19921;-67
2022/09/12 13:30:23;;;;;;;;;;;23.90;79.60;;;;;;5057549;28;20388;-67
2022/09/12 13:32:49;;;;;;;;;;;23.90;79.50;;;;;;5063594;28;20003;-67
2022/09/12 13:35:24;;;;;;;;;;;23.90;79.40;;;;;;5063183;28;20281;-67
2022/09/12 13:38:08;;;;;;;;;;;23.90;78.80;;;;;;5061636;28;19938;-67
2022/09/12 13:40:33;;;;;;;;;;;24.00;80.00;;;;;;5060872;28;19916;-67
2022/09/12 13:43:14;;;;;;;;;;;24.00;79.50;;;;;;5064480;28;19916;-67
2022/09/12 13:45:40;;;;;;;;;;;24.10;79.20;;;;;;5063092;28;19917;-67
2022/09/12 13:48:06;;;;;;;;;;;24.10;78.80;;;;;;5062338;28;20388;-67
2022/09/12 13:50:36;;;;;;;;;;;24.10;78.70;;;;;;5062035;28;19916;-67
2022/09/12 13:53:09;;;;;;;;;;;24.10;78.00;;;;;;5060554;28;19917;-67
2022/09/12 13:55:37;;;;;;;;;;;24.20;78.20;;;;;;5064160;28;20502;-67
2022/09/12 13:58:04;;;;;;;;;;;24.20;77.80;;;;;;5062912;28;19923;-67
2022/09/12 14:00:31;;;;;;;;;;;24.30;77.80;;;;;;5061687;28;19952;-67
2022/09/12 14:05:43;;;;;;;;;;;24.30;77.60;;;;;;5063490;28;20335;-67
2022/09/12 14:08:10;;;;;;;;;;;24.30;77.40;;;;;;5063833;28;19935;-67
2022/09/12 14:10:40;;;;;;;;;;;24.30;77.10;;;;;;5064787;28;19917;-67
2022/09/12 14:13:11;;;;;;;;;;;24.30;76.70;;;;;;5064532;28;20582;-67
2022/09/12 14:15:37;;;;;;;;;;;24.40;77.00;;;;;;5065183;28;19940;-67
2022/09/12 14:18:03;;;;;;;;;;;24.40;76.10;;;;;;5066637;28;20017;-67
2022/09/12 14:20:33;;;;;;;;;;;24.40;76.20;;;;;;5063772;28;20011;-67
2022/09/12 14:23:03;;;;;;;;;;;24.40;76.30;;;;;;5065801;28;19913;-67
2022/09/12 14:25:36;;;;;;;;;;;24.40;75.60;;;;;;5067948;28;20681;-67
2022/09/12 14:28:02;;;;;;;;;;;24.40;76.00;;;;;;5066210;28;19928;-67
2022/09/12 14:30:31;;;;;;;;;;;24.50;76.00;;;;;;5066784;28;19913;-67